G.l. Ostrander — WCV7620 — position and weather

sailwx.info

Track history (hours):
 
Tides and Currents Weather Stations Pressure Air Temp Water Temp Dewpoint Dewpoint Depression Visibility Wind Speed Wind Dir Waves Ship Positions

G.l. Ostrander

Owner: LAFARGE CORPORATION, Muskegon, MI. More information available from US FCC via Universal Licensing System and Coast Guard Vessel Documentation Center.

Last reported at 2018-Jan-11 18:33 UTC. Time now 2018-Jan-21 17:59 UTC.
Position N 45°52' W 085°11'.
Warning: this ship's position is 9 days out of date.

Length 70 m; draft 7.1 m.

Type: Tug. MMSI: 366937490.

Date/timePositionNaut miles runAvg speedWind from/ knotsBaromVisibWave heightAir tempDewpointWater temp
2018-Jan-11 18:33N 45°52' W 085°11'1 9.4
2018-Jan-11 18:26N 45°52' W 085°10'4 9.0
2018-Jan-11 18:00N 45°52' W 085°04'4 8.2
2018-Jan-11 17:30N 45°51' W 084°58'4 8.9
2018-Jan-11 17:00N 45°50' W 084°52'2 3.2
2018-Jan-11 16:30N 45°50' W 084°50'1 3.0
2018-Jan-11 16:00N 45°49' W 084°48'1 1.2
2018-Jan-11 15:30N 45°49' W 084°47'4 8.5
2018-Jan-11 15:00N 45°49' W 084°41'510.7
2018-Jan-11 14:30N 45°51' W 084°33'5 9.9
2018-Jan-11 13:58N 45°51' W 084°26'31 8.9
2018-Jan-11 10:33N 45°33' W 083°50'0 9.9
2018-Jan-11 10:30N 45°32' W 083°50'5 9.9
2018-Jan-11 10:00N 45°30' W 083°43'510.0
2018-Jan-11 09:30N 45°28' W 083°37'5 9.9
2018-Jan-11 09:00N 45°26' W 083°30'5 9.9
2018-Jan-11 08:29N 45°24' W 083°24'4 0.2
2018-Jan-10 13:40N 45°26' W 083°29'3 8.6
2018-Jan-10 13:19N 45°27' W 083°32'310.3
2018-Jan-10 13:00N 45°28' W 083°37'510.5
2018-Jan-10 12:30N 45°30' W 083°44'510.5
2018-Jan-10 12:01N 45°32' W 083°50'510.5
2018-Jan-10 11:30N 45°35' W 083°57'510.0
2018-Jan-10 10:59N 45°37' W 084°04'510.3
2018-Jan-10 10:30N 45°40' W 084°09'610.6
2018-Jan-10 09:56N 45°45' W 084°14'510.6
2018-Jan-10 09:30N 45°49' W 084°18'510.2
2018-Jan-10 09:00N 45°51' W 084°25'611.1
2018-Jan-10 08:30N 45°51' W 084°33'4 8.7
2018-Jan-10 08:00N 45°50' W 084°39'3 6.8
2018-Jan-10 07:30N 45°49' W 084°44'2 5.0
2018-Jan-10 07:00N 45°49' W 084°47'3 5.8
2018-Jan-10 06:30N 45°50' W 084°52'4 7.6
2018-Jan-10 06:00N 45°50' W 084°57'4 7.3
2018-Jan-10 05:30N 45°51' W 085°02'4 7.3
2018-Jan-10 05:00N 45°51' W 085°07'5 9.6
2018-Jan-10 04:30N 45°52' W 085°14'4 7.0
2018-Jan-10 04:00N 45°52' W 085°19'5 9.2
2018-Jan-10 03:30N 45°53' W 085°26'510.7
2018-Jan-10 03:00N 45°53' W 085°33'611.1
2018-Jan-10 02:30N 45°51' W 085°40'611.2
2018-Jan-10 02:00N 45°49' W 085°48'611.4
2018-Jan-10 01:30N 45°46' W 085°55'611.3
2018-Jan-10 01:00N 45°42' W 086°01'611.6
2018-Jan-10 00:30N 45°38' W 086°06'611.6
2018-Jan-09 23:58N 45°32' W 086°11'207 4.7
2018-Jan-08 04:00N 42°06' W 086°30'   180 / 151017.2 5.4 -0.0
Track history (hours):
 
Tides and Currents Weather Stations Pressure Air Temp Water Temp Dewpoint Dewpoint Depression Visibility Wind Speed Wind Dir Waves Ship Positions

G.l. Ostrander

Owner: LAFARGE CORPORATION, Muskegon, MI. More information available from US FCC via Universal Licensing System and Coast Guard Vessel Documentation Center.

Last reported at 2018-Jan-11 18:33 UTC. Time now 2018-Jan-21 17:59 UTC.
Position N 45°52' W 085°11'.
Warning: this ship's position is 9 days out of date.

Length 70 m; draft 7.1 m.

Type: Tug. MMSI: 366937490.

Date/timePositionNaut miles runAvg speedWind from/ knotsBaromVisibWave heightAir tempDewpointWater temp
2018-Jan-11 18:33N 45°52' W 085°11'1 9.4
2018-Jan-11 18:26N 45°52' W 085°10'4 9.0
2018-Jan-11 18:00N 45°52' W 085°04'4 8.2
2018-Jan-11 17:30N 45°51' W 084°58'4 8.9
2018-Jan-11 17:00N 45°50' W 084°52'2 3.2
2018-Jan-11 16:30N 45°50' W 084°50'1 3.0
2018-Jan-11 16:00N 45°49' W 084°48'1 1.2
2018-Jan-11 15:30N 45°49' W 084°47'4 8.5
2018-Jan-11 15:00N 45°49' W 084°41'510.7
2018-Jan-11 14:30N 45°51' W 084°33'5 9.9
2018-Jan-11 13:58N 45°51' W 084°26'31 8.9
2018-Jan-11 10:33N 45°33' W 083°50'0 9.9
2018-Jan-11 10:30N 45°32' W 083°50'5 9.9
2018-Jan-11 10:00N 45°30' W 083°43'510.0
2018-Jan-11 09:30N 45°28' W 083°37'5 9.9
2018-Jan-11 09:00N 45°26' W 083°30'5 9.9
2018-Jan-11 08:29N 45°24' W 083°24'4 0.2
2018-Jan-10 13:40N 45°26' W 083°29'3 8.6
2018-Jan-10 13:19N 45°27' W 083°32'310.3
2018-Jan-10 13:00N 45°28' W 083°37'510.5
2018-Jan-10 12:30N 45°30' W 083°44'510.5
2018-Jan-10 12:01N 45°32' W 083°50'510.5
2018-Jan-10 11:30N 45°35' W 083°57'510.0
2018-Jan-10 10:59N 45°37' W 084°04'510.3
2018-Jan-10 10:30N 45°40' W 084°09'610.6
2018-Jan-10 09:56N 45°45' W 084°14'510.6
2018-Jan-10 09:30N 45°49' W 084°18'510.2
2018-Jan-10 09:00N 45°51' W 084°25'611.1
2018-Jan-10 08:30N 45°51' W 084°33'4 8.7
2018-Jan-10 08:00N 45°50' W 084°39'3 6.8
2018-Jan-10 07:30N 45°49' W 084°44'2 5.0
2018-Jan-10 07:00N 45°49' W 084°47'3 5.8
2018-Jan-10 06:30N 45°50' W 084°52'4 7.6
2018-Jan-10 06:00N 45°50' W 084°57'4 7.3
2018-Jan-10 05:30N 45°51' W 085°02'4 7.3
2018-Jan-10 05:00N 45°51' W 085°07'5 9.6
2018-Jan-10 04:30N 45°52' W 085°14'4 7.0
2018-Jan-10 04:00N 45°52' W 085°19'5 9.2
2018-Jan-10 03:30N 45°53' W 085°26'510.7
2018-Jan-10 03:00N 45°53' W 085°33'611.1
2018-Jan-10 02:30N 45°51' W 085°40'611.2
2018-Jan-10 02:00N 45°49' W 085°48'611.4
2018-Jan-10 01:30N 45°46' W 085°55'611.3
2018-Jan-10 01:00N 45°42' W 086°01'611.6
2018-Jan-10 00:30N 45°38' W 086°06'611.6
2018-Jan-09 23:58N 45°32' W 086°11'207 4.7
2018-Jan-08 04:00N 42°06' W 086°30'   180 / 151017.2 5.4 -0.0

Dump ship's entire track history